Time;durP1;ratioP1;P1;durP2;ratioP2;P2;SDS_P1;SDS_P2;PMS_P1;PMS_P2;Temp;Humidity;BMP_temperature;BMP_pressure;BME280_temperature;BME280_humidity;BME280_pressure;Samples;Min_cycle;Max_cycle;Signal;HPM_P1;HPM_P2
2024/03/02 00:00:20;;;;;;;;;;;15.80;61.60;;;;;;5096088;28;19916;-72
2024/03/02 00:02:47;;;;;;;;;;;15.80;65.60;;;;;;5096448;28;19908;-71
2024/03/02 00:05:14;;;;;;;;;;;15.80;66.00;;;;;;5096304;28;19908;-72
2024/03/02 00:07:43;;;;;;;;;;;15.80;66.30;;;;;;5096317;28;20408;-71
2024/03/02 00:10:12;;;;;;;;;;;15.90;61.40;;;;;;5096332;28;19908;-71
2024/03/02 00:12:38;;;;;;;;;;;15.80;64.70;;;;;;5096214;28;19915;-72
2024/03/02 00:15:20;;;;;;;;;;;15.90;66.20;;;;;;5096147;28;19908;-71
2024/03/02 00:17:46;;;;;;;;;;;15.90;61.30;;;;;;5096269;28;19908;-72
2024/03/02 00:20:15;;;;;;;;;;;15.90;66.10;;;;;;5095933;28;19920;-71
2024/03/02 00:22:41;;;;;;;;;;;15.90;66.00;;;;;;5095955;28;19951;-71
2024/03/02 00:25:08;;;;;;;;;;;15.80;65.90;;;;;;5095777;28;19950;-71
2024/03/02 00:27:33;;;;;;;;;;;15.90;65.00;;;;;;5095820;28;19908;-71
2024/03/02 00:30:00;;;;;;;;;;;15.90;66.40;;;;;;5095735;28;19915;-72
2024/03/02 00:32:28;;;;;;;;;;;15.80;66.10;;;;;;5095841;28;19955;-71
2024/03/02 00:34:53;;;;;;;;;;;15.90;66.00;;;;;;5096171;28;19909;-79
2024/03/02 00:37:19;;;;;;;;;;;15.90;66.30;;;;;;5095567;28;20285;-78
2024/03/02 00:39:48;;;;;;;;;;;16.10;66.10;;;;;;5095620;28;19931;-79
2024/03/02 00:42:14;;;;;;;;;;;15.80;66.40;;;;;;5095750;28;20234;-78
2024/03/02 00:44:40;;;;;;;;;;;15.90;66.20;;;;;;5096024;28;19991;-78
2024/03/02 00:47:05;;;;;;;;;;;15.90;66.20;;;;;;5095937;28;19908;-79
2024/03/02 00:49:31;;;;;;;;;;;15.90;66.40;;;;;;5095664;28;20446;-79
2024/03/02 00:51:56;;;;;;;;;;;16.10;66.40;;;;;;5095645;28;19908;-79
2024/03/02 00:54:24;;;;;;;;;;;15.90;66.00;;;;;;5095819;28;20388;-79
2024/03/02 00:56:50;;;;;;;;;;;15.80;66.40;;;;;;5095512;28;19908;-79
2024/03/02 00:59:15;;;;;;;;;;;15.90;66.40;;;;;;5095367;28;19912;-79
2024/03/02 01:01:42;;;;;;;;;;;15.90;65.60;;;;;;5096058;28;19909;-79
2024/03/02 01:04:07;;;;;;;;;;;15.80;66.20;;;;;;5095425;28;20002;-79
2024/03/02 01:06:33;;;;;;;;;;;15.90;66.90;;;;;;5095064;28;19908;-79
2024/03/02 01:08:59;;;;;;;;;;;15.90;65.90;;;;;;5094760;28;19977;-78
2024/03/02 01:11:25;;;;;;;;;;;15.90;66.20;;;;;;5095456;28;19908;-79
2024/03/02 01:13:52;;;;;;;;;;;15.90;66.10;;;;;;5095172;28;19935;-79
2024/03/02 01:16:18;;;;;;;;;;;15.80;65.80;;;;;;5095352;28;19908;-79
2024/03/02 01:18:44;;;;;;;;;;;15.80;66.10;;;;;;5094994;28;19930;-79
2024/03/02 01:21:10;;;;;;;;;;;15.80;65.80;;;;;;5095166;28;19916;-79
2024/03/02 01:23:36;;;;;;;;;;;15.90;66.00;;;;;;5095250;28;19915;-79
2024/03/02 01:26:02;;;;;;;;;;;15.80;66.20;;;;;;5095278;28;19915;-79
2024/03/02 01:28:28;;;;;;;;;;;15.80;65.50;;;;;;5095184;28;20238;-79
2024/03/02 01:30:54;;;;;;;;;;;15.90;66.00;;;;;;5095629;28;19916;-79
2024/03/02 01:33:20;;;;;;;;;;;15.90;66.10;;;;;;5094786;28;20275;-79
2024/03/02 01:35:46;;;;;;;;;;;15.80;66.00;;;;;;5094721;28;19908;-79
2024/03/02 01:38:12;;;;;;;;;;;15.80;65.90;;;;;;5094522;28;19908;-79
2024/03/02 01:40:38;;;;;;;;;;;15.80;66.10;;;;;;5094573;28;19962;-79
2024/03/02 01:43:04;;;;;;;;;;;15.80;66.00;;;;;;5094911;28;19998;-79
2024/03/02 01:45:30;;;;;;;;;;;15.80;65.90;;;;;;5094573;28;19908;-79
2024/03/02 01:47:56;;;;;;;;;;;15.90;66.00;;;;;;5094731;28;19909;-79
2024/03/02 01:50:26;;;;;;;;;;;15.80;66.10;;;;;;5094460;28;19936;-79
2024/03/02 01:52:51;;;;;;;;;;;15.80;61.20;;;;;;5094400;28;19957;-79
2024/03/02 01:55:17;;;;;;;;;;;15.90;66.00;;;;;;5094504;28;19912;-79
2024/03/02 01:57:44;;;;;;;;;;;15.80;65.80;;;;;;5094352;28;19920;-79
2024/03/02 02:00:10;;;;;;;;;;;15.80;65.60;;;;;;5094431;28;19916;-79
2024/03/02 02:02:36;;;;;;;;;;;15.80;65.40;;;;;;5094177;28;20260;-79
2024/03/02 02:05:01;;;;;;;;;;;15.70;65.40;;;;;;5094123;28;19912;-79
2024/03/02 02:07:27;;;;;;;;;;;15.80;65.60;;;;;;5094097;28;19908;-78
2024/03/02 02:09:52;;;;;;;;;;;15.80;65.60;;;;;;5094235;28;19938;-79
2024/03/02 02:12:18;;;;;;;;;;;16.10;66.00;;;;;;5094196;28;19948;-79
2024/03/02 02:14:50;;;;;;;;;;;15.80;65.60;;;;;;5094233;28;19961;-78
2024/03/02 02:17:16;;;;;;;;;;;15.80;61.00;;;;;;5094588;28;19915;-71
2024/03/02 02:19:42;;;;;;;;;;;15.90;65.30;;;;;;5093037;28;19943;-72
2024/03/02 02:22:08;;;;;;;;;;;15.80;65.80;;;;;;5092570;28;20359;-72
2024/03/02 02:24:33;;;;;;;;;;;15.80;65.50;;;;;;5093762;28;19908;-72
2024/03/02 02:26:59;;;;;;;;;;;15.80;65.90;;;;;;5092560;28;20223;-72
2024/03/02 02:29:24;;;;;;;;;;;15.80;66.00;;;;;;5093774;28;20006;-72
2024/03/02 02:31:50;;;;;;;;;;;15.80;65.40;;;;;;5093615;28;19908;-72
2024/03/02 02:34:16;;;;;;;;;;;15.80;66.00;;;;;;5093627;28;19916;-71
2024/03/02 02:36:42;;;;;;;;;;;15.80;65.40;;;;;;5093487;28;19916;-72
2024/03/02 02:39:10;;;;;;;;;;;15.80;65.70;;;;;;5093276;28;20374;-72
2024/03/02 02:41:36;;;;;;;;;;;15.80;65.10;;;;;;5093376;28;19915;-72
2024/03/02 02:44:01;;;;;;;;;;;15.80;65.70;;;;;;5093437;28;20286;-71
2024/03/02 02:46:27;;;;;;;;;;;15.80;65.50;;;;;;5094011;28;19912;-79
2024/03/02 02:48:53;;;;;;;;;;;15.80;65.60;;;;;;5093347;28;20412;-79
2024/03/02 02:51:19;;;;;;;;;;;15.80;65.50;;;;;;5093728;28;20007;-79
2024/03/02 02:53:44;;;;;;;;;;;15.80;65.40;;;;;;5093484;28;19986;-78
2024/03/02 02:56:10;;;;;;;;;;;15.80;65.50;;;;;;5093388;28;19944;-79
2024/03/02 02:58:35;;;;;;;;;;;15.80;64.80;;;;;;5093318;28;20057;-79
2024/03/02 03:01:01;;;;;;;;;;;15.80;65.40;;;;;;5093135;28;19926;-79
2024/03/02 03:03:27;;;;;;;;;;;15.70;65.10;;;;;;5093011;28;19962;-79
2024/03/02 03:05:52;;;;;;;;;;;15.80;65.40;;;;;;5092902;28;19915;-79
2024/03/02 03:08:18;;;;;;;;;;;15.70;65.50;;;;;;5093082;28;20328;-79
2024/03/02 03:10:44;;;;;;;;;;;15.80;65.40;;;;;;5092967;28;19912;-79
2024/03/02 03:13:10;;;;;;;;;;;15.70;65.40;;;;;;5092792;28;19908;-79
2024/03/02 03:15:38;;;;;;;;;;;15.70;65.40;;;;;;5093365;28;19934;-79
2024/03/02 03:18:04;;;;;;;;;;;15.70;65.40;;;;;;5092756;28;19909;-79
2024/03/02 03:20:30;;;;;;;;;;;15.70;64.70;;;;;;5092861;28;19938;-79
2024/03/02 03:22:56;;;;;;;;;;;15.70;65.90;;;;;;5092866;28;20370;-79
2024/03/02 03:25:21;;;;;;;;;;;15.60;65.50;;;;;;5092802;28;19912;-79
2024/03/02 03:27:47;;;;;;;;;;;15.70;65.90;;;;;;5092652;28;19908;-79
2024/03/02 03:30:12;;;;;;;;;;;15.80;65.80;;;;;;5092502;28;19912;-79
2024/03/02 03:32:38;;;;;;;;;;;15.70;65.10;;;;;;5092716;28;19909;-79
2024/03/02 03:35:04;;;;;;;;;;;15.60;65.50;;;;;;5092731;28;19912;-79
2024/03/02 03:37:32;;;;;;;;;;;15.60;64.30;;;;;;5092677;28;20334;-79
2024/03/02 03:40:02;;;;;;;;;;;15.70;62.00;;;;;;5092237;28;19921;-79
2024/03/02 03:42:29;;;;;;;;;;;15.70;65.80;;;;;;5092689;28;20202;-79
2024/03/02 03:44:55;;;;;;;;;;;15.60;66.00;;;;;;5092500;28;20370;-79
2024/03/02 03:47:21;;;;;;;;;;;15.60;65.90;;;;;;5092521;28;19919;-79
2024/03/02 03:49:46;;;;;;;;;;;15.60;65.80;;;;;;5092560;28;19998;-79
2024/03/02 03:52:11;;;;;;;;;;;15.60;66.10;;;;;;5092453;28;20366;-79
2024/03/02 03:54:38;;;;;;;;;;;15.80;66.00;;;;;;5092532;28;19988;-79
2024/03/02 03:57:04;;;;;;;;;;;15.40;65.50;;;;;;5092385;28;19908;-71
2024/03/02 03:59:29;;;;;;;;;;;15.60;65.40;;;;;;5092218;28;19912;-72
2024/03/02 04:01:55;;;;;;;;;;;15.60;65.40;;;;;;5092238;28;19930;-71
2024/03/02 04:04:21;;;;;;;;;;;15.70;65.70;;;;;;5092576;28;19912;-72
2024/03/02 04:06:47;;;;;;;;;;;15.80;65.80;;;;;;5092243;28;19908;-72
2024/03/02 04:09:13;;;;;;;;;;;15.50;65.80;;;;;;5092543;28;19915;-71
2024/03/02 04:11:39;;;;;;;;;;;15.60;65.30;;;;;;5093007;28;19956;-71
2024/03/02 04:14:06;;;;;;;;;;;15.60;66.00;;;;;;5092504;28;19912;-71
2024/03/02 04:16:32;;;;;;;;;;;15.60;65.70;;;;;;5092506;28;19916;-71
2024/03/02 04:18:57;;;;;;;;;;;15.60;65.50;;;;;;5092420;28;19914;-72
2024/03/02 04:21:23;;;;;;;;;;;15.60;65.80;;;;;;5092105;28;19908;-71
2024/03/02 04:23:49;;;;;;;;;;;15.60;65.80;;;;;;5092486;28;19908;-72
2024/03/02 04:26:19;;;;;;;;;;;15.60;65.60;;;;;;5092481;28;19962;-78
2024/03/02 04:28:45;;;;;;;;;;;15.50;65.50;;;;;;5092422;28;19981;-79
2024/03/02 04:31:11;;;;;;;;;;;15.60;65.90;;;;;;5091932;28;19913;-78
2024/03/02 04:33:37;;;;;;;;;;;15.60;65.60;;;;;;5092326;28;19908;-79
2024/03/02 04:36:03;;;;;;;;;;;15.70;65.70;;;;;;5092010;28;19916;-79
2024/03/02 04:38:30;;;;;;;;;;;15.50;64.80;;;;;;5092041;28;20294;-79
2024/03/02 04:40:56;;;;;;;;;;;15.50;65.20;;;;;;5092783;28;19920;-79
2024/03/02 04:43:22;;;;;;;;;;;15.60;65.50;;;;;;5094084;28;19931;-79
2024/03/02 04:45:48;;;;;;;;;;;15.60;65.60;;;;;;5095950;28;19909;-79
2024/03/02 04:48:14;;;;;;;;;;;15.50;65.70;;;;;;5095812;28;19996;-79
2024/03/02 04:50:40;;;;;;;;;;;15.60;65.60;;;;;;5095503;28;19908;-78
2024/03/02 04:53:05;;;;;;;;;;;15.50;65.20;;;;;;5095487;28;19934;-79
2024/03/02 04:57:59;;;;;;;;;;;15.80;62.20;;;;;;5095543;28;19908;-79
2024/03/02 05:00:24;;;;;;;;;;;15.50;65.90;;;;;;5094072;28;20454;-78
2024/03/02 05:02:51;;;;;;;;;;;15.50;65.90;;;;;;5095271;28;19955;-79
2024/03/02 05:05:16;;;;;;;;;;;15.50;65.70;;;;;;5095223;28;19908;-78
2024/03/02 05:07:43;;;;;;;;;;;15.50;65.90;;;;;;5095270;28;19909;-78
2024/03/02 05:10:09;;;;;;;;;;;15.00;65.30;;;;;;5096020;28;19908;-78
2024/03/02 05:12:55;;;;;;;;;;;15.30;65.70;;;;;;5095167;28;20388;-79
2024/03/02 05:15:21;;;;;;;;;;;15.40;65.30;;;;;;5095008;28;19908;-79
2024/03/02 05:17:47;;;;;;;;;;;15.50;65.70;;;;;;5095084;28;19908;-79
2024/03/02 05:20:12;;;;;;;;;;;15.40;65.50;;;;;;5094974;28;20379;-79
2024/03/02 05:22:38;;;;;;;;;;;15.40;65.80;;;;;;5095120;28;19915;-79
2024/03/02 05:25:04;;;;;;;;;;;15.50;65.60;;;;;;5095036;28;19912;-79
2024/03/02 05:27:30;;;;;;;;;;;15.50;64.80;;;;;;5094952;28;19915;-79
2024/03/02 05:29:56;;;;;;;;;;;15.40;65.50;;;;;;5094868;28;19908;-79
2024/03/02 05:32:21;;;;;;;;;;;15.40;65.70;;;;;;5094797;28;19912;-79
2024/03/02 05:34:47;;;;;;;;;;;15.50;65.50;;;;;;5094861;28;19916;-79
2024/03/02 05:37:12;;;;;;;;;;;15.40;65.10;;;;;;5095302;28;19931;-79
2024/03/02 05:39:38;;;;;;;;;;;15.30;65.30;;;;;;5094562;28;20313;-79
2024/03/02 05:42:03;;;;;;;;;;;15.40;65.40;;;;;;5094739;28;19908;-79
2024/03/02 05:44:29;;;;;;;;;;;15.40;65.30;;;;;;5094724;28;19958;-79
2024/03/02 05:46:55;;;;;;;;;;;15.40;65.20;;;;;;5094658;28;19962;-79
2024/03/02 05:49:20;;;;;;;;;;;15.50;65.30;;;;;;5094488;28;19948;-78
2024/03/02 05:51:46;;;;;;;;;;;15.40;65.40;;;;;;5093139;28;19908;-79
2024/03/02 05:54:12;;;;;;;;;;;15.40;65.50;;;;;;5094258;28;19914;-79
2024/03/02 05:56:37;;;;;;;;;;;15.40;65.50;;;;;;5094354;28;19915;-79
2024/03/02 05:59:12;;;;;;;;;;;15.40;65.70;;;;;;5094227;28;19909;-79
2024/03/02 06:01:38;;;;;;;;;;;15.40;65.00;;;;;;5094446;28;19908;-79
2024/03/02 06:04:04;;;;;;;;;;;15.40;65.60;;;;;;5094169;28;19950;-79
2024/03/02 06:06:29;;;;;;;;;;;15.50;65.40;;;;;;5094534;28;19908;-79
2024/03/02 06:08:55;;;;;;;;;;;15.40;65.50;;;;;;5094102;28;20447;-79
2024/03/02 06:11:20;;;;;;;;;;;15.40;65.50;;;;;;5094076;28;19919;-78
2024/03/02 06:13:46;;;;;;;;;;;15.40;65.40;;;;;;5094009;28;20286;-79
2024/03/02 06:16:12;;;;;;;;;;;15.40;65.70;;;;;;5093940;28;19908;-78
2024/03/02 06:18:37;;;;;;;;;;;15.40;65.20;;;;;;5094109;28;19915;-79
2024/03/02 06:21:03;;;;;;;;;;;15.40;65.90;;;;;;5093855;28;19916;-78
2024/03/02 06:23:28;;;;;;;;;;;15.40;65.00;;;;;;5093857;28;20003;-79
2024/03/02 06:25:54;;;;;;;;;;;15.40;65.60;;;;;;5093794;28;20370;-79
2024/03/02 06:28:20;;;;;;;;;;;15.40;65.40;;;;;;5094000;28;20019;-78
2024/03/02 06:30:45;;;;;;;;;;;15.40;65.50;;;;;;5093852;28;20345;-78
2024/03/02 06:33:11;;;;;;;;;;;15.50;66.10;;;;;;5093626;28;19981;-78
2024/03/02 06:35:36;;;;;;;;;;;15.40;65.40;;;;;;5093858;28;19908;-79
2024/03/02 06:38:02;;;;;;;;;;;15.40;65.70;;;;;;5093335;28;19909;-78
2024/03/02 06:40:27;;;;;;;;;;;15.40;66.00;;;;;;5093428;28;19977;-79
2024/03/02 06:42:53;;;;;;;;;;;15.40;66.10;;;;;;5093391;28;19914;-79
2024/03/02 06:45:19;;;;;;;;;;;15.50;66.10;;;;;;5093446;28;19991;-79
2024/03/02 06:47:44;;;;;;;;;;;15.40;66.30;;;;;;5093623;28;19960;-71
2024/03/02 06:50:10;;;;;;;;;;;15.40;66.30;;;;;;5093170;28;19908;-71
2024/03/02 06:52:36;;;;;;;;;;;15.40;65.70;;;;;;5093257;28;19908;-72
2024/03/02 06:55:01;;;;;;;;;;;15.40;66.20;;;;;;5093446;28;19918;-72
2024/03/02 06:57:27;;;;;;;;;;;15.40;66.60;;;;;;5093200;28;20564;-72
2024/03/02 06:59:54;;;;;;;;;;;15.40;66.60;;;;;;5092994;28;20377;-72
2024/03/02 07:02:20;;;;;;;;;;;15.40;66.10;;;;;;5093451;28;19909;-71
2024/03/02 07:04:46;;;;;;;;;;;15.10;66.20;;;;;;5092807;28;19915;-71
2024/03/02 07:07:12;;;;;;;;;;;15.40;66.60;;;;;;5092856;28;20002;-72
2024/03/02 07:09:37;;;;;;;;;;;15.30;66.40;;;;;;5092882;28;20358;-72
2024/03/02 07:12:03;;;;;;;;;;;17.80;67.90;;;;;;5092958;28;19914;-71
2024/03/02 07:17:13;;;;;;;;;;;15.50;63.10;;;;;;5099858;28;19953;-71
2024/03/02 07:19:39;;;;;;;;;;;15.30;66.60;;;;;;5092600;28;19961;-71
2024/03/02 07:22:11;;;;;;;;;;;15.40;66.90;;;;;;5092754;28;19922;-72
2024/03/02 07:24:41;;;;;;;;;;;15.40;62.20;;;;;;5092740;28;19912;-72
2024/03/02 07:27:07;;;;;;;;;;;15.50;62.30;;;;;;5092518;28;20438;-72
2024/03/02 07:29:32;;;;;;;;;;;15.40;67.00;;;;;;5092560;28;20011;-72
2024/03/02 07:31:57;;;;;;;;;;;15.40;66.90;;;;;;5093073;28;19908;-71
2024/03/02 07:34:23;;;;;;;;;;;15.40;66.80;;;;;;5092549;28;19909;-71
2024/03/02 07:36:49;;;;;;;;;;;15.40;66.60;;;;;;5092477;28;19909;-72
2024/03/02 07:39:14;;;;;;;;;;;15.40;66.90;;;;;;5092289;28;19920;-72
2024/03/02 07:41:40;;;;;;;;;;;15.40;67.00;;;;;;5092339;28;19953;-71
2024/03/02 07:44:05;;;;;;;;;;;15.40;66.80;;;;;;5092485;28;19970;-71
2024/03/02 07:46:30;;;;;;;;;;;15.60;66.90;;;;;;5092371;28;19919;-72
2024/03/02 07:48:56;;;;;;;;;;;15.70;67.10;;;;;;5092254;28;19962;-72
2024/03/02 07:51:21;;;;;;;;;;;15.40;66.70;;;;;;5092208;28;20386;-72
2024/03/02 07:53:47;;;;;;;;;;;15.40;66.70;;;;;;5092216;28;19908;-72
2024/03/02 07:56:12;;;;;;;;;;;15.50;66.80;;;;;;5092379;28;19908;-72
2024/03/02 07:58:38;;;;;;;;;;;15.40;66.90;;;;;;5092303;28;20366;-72
2024/03/02 08:01:03;;;;;;;;;;;15.30;66.60;;;;;;5092880;28;19916;-72
2024/03/02 08:03:29;;;;;;;;;;;15.50;66.10;;;;;;5092300;28;19962;-73
2024/03/02 08:05:55;;;;;;;;;;;15.30;66.60;;;;;;5092448;28;19908;-73
2024/03/02 08:08:20;;;;;;;;;;;15.60;66.60;;;;;;5092159;28;19909;-72
2024/03/02 08:10:46;;;;;;;;;;;15.40;66.60;;;;;;5092216;28;20401;-71
2024/03/02 08:13:11;;;;;;;;;;;15.40;66.60;;;;;;5092035;28;19919;-72
2024/03/02 08:15:37;;;;;;;;;;;15.40;66.30;;;;;;5090843;28;19930;-71
2024/03/02 08:18:02;;;;;;;;;;;15.40;66.50;;;;;;5095582;28;19908;-71
2024/03/02 08:20:28;;;;;;;;;;;15.40;66.00;;;;;;5096252;28;20400;-71
2024/03/02 08:22:55;;;;;;;;;;;15.50;66.30;;;;;;5096080;28;19908;-71
2024/03/02 08:25:20;;;;;;;;;;;15.40;66.10;;;;;;5096034;28;20038;-71
2024/03/02 08:27:46;;;;;;;;;;;15.40;66.70;;;;;;5096603;28;20278;-75
2024/03/02 08:30:12;;;;;;;;;;;15.40;66.30;;;;;;5095963;28;20371;-75
2024/03/02 08:32:37;;;;;;;;;;;15.40;64.90;;;;;;5094671;28;20271;-75
2024/03/02 08:35:03;;;;;;;;;;;15.50;66.50;;;;;;5095861;28;19979;-75
2024/03/02 08:37:29;;;;;;;;;;;15.40;65.40;;;;;;5095977;28;19909;-74
2024/03/02 08:39:54;;;;;;;;;;;15.40;66.70;;;;;;5095426;28;19926;-75
2024/03/02 08:42:20;;;;;;;;;;;15.50;66.90;;;;;;5095541;28;20293;-71
2024/03/02 08:44:45;;;;;;;;;;;15.50;66.90;;;;;;5095406;28;20289;-71
2024/03/02 08:47:11;;;;;;;;;;;15.50;66.90;;;;;;5095701;28;19912;-70
2024/03/02 08:49:36;;;;;;;;;;;15.90;67.30;;;;;;5095369;28;20004;-71
2024/03/02 08:52:02;;;;;;;;;;;15.50;66.70;;;;;;5095257;28;19965;-70
2024/03/02 08:54:27;;;;;;;;;;;15.50;67.10;;;;;;5095571;28;19912;-71
2024/03/02 08:56:53;;;;;;;;;;;15.60;67.00;;;;;;5095854;28;20290;-71
2024/03/02 08:59:19;;;;;;;;;;;15.50;67.30;;;;;;5095075;28;19908;-71
2024/03/02 09:01:45;;;;;;;;;;;15.60;65.80;;;;;;5095281;28;19915;-71
2024/03/02 09:04:10;;;;;;;;;;;15.70;67.00;;;;;;5095097;28;19946;-69
2024/03/02 09:06:36;;;;;;;;;;;15.70;67.20;;;;;;5093707;28;19955;-71
2024/03/02 09:09:01;;;;;;;;;;;14.60;66.60;;;;;;5095560;28;20294;-73
2024/03/02 09:11:27;;;;;;;;;;;15.60;66.40;;;;;;5096770;28;19908;-72
2024/03/02 09:13:53;;;;;;;;;;;15.70;67.00;;;;;;5094805;28;19912;-71
2024/03/02 09:16:19;;;;;;;;;;;15.70;66.80;;;;;;5095027;28;20289;-72
2024/03/02 09:18:44;;;;;;;;;;;15.80;66.80;;;;;;5095126;28;20011;-71
2024/03/02 09:21:10;;;;;;;;;;;15.80;66.90;;;;;;5094854;28;20002;-75
2024/03/02 09:23:35;;;;;;;;;;;15.80;66.70;;;;;;5094841;28;19915;-71
2024/03/02 09:26:01;;;;;;;;;;;15.90;66.60;;;;;;5095185;28;19916;-72
2024/03/02 09:28:26;;;;;;;;;;;15.70;66.60;;;;;;5094114;28;19990;-73
2024/03/02 09:30:52;;;;;;;;;;;15.90;66.60;;;;;;5094615;28;19915;-77
2024/03/02 09:33:18;;;;;;;;;;;15.90;66.80;;;;;;5094613;28;20290;-78
2024/03/02 09:35:43;;;;;;;;;;;15.90;66.50;;;;;;5095016;28;19908;-77
2024/03/02 09:38:09;;;;;;;;;;;16.00;66.80;;;;;;5094658;28;19908;-76
2024/03/02 09:40:35;;;;;;;;;;;16.40;66.70;;;;;;5094505;28;19916;-74
2024/03/02 09:43:01;;;;;;;;;;;16.10;66.40;;;;;;5094486;28;19919;-75
2024/03/02 09:45:27;;;;;;;;;;;16.10;66.80;;;;;;5094459;28;20386;-77
2024/03/02 09:47:52;;;;;;;;;;;16.00;66.30;;;;;;5094508;28;19912;-85
2024/03/02 09:50:18;;;;;;;;;;;16.10;66.70;;;;;;5094227;28;20294;-82
2024/03/02 09:52:44;;;;;;;;;;;16.20;66.40;;;;;;5094305;28;19938;-75
2024/03/02 09:55:09;;;;;;;;;;;16.30;66.30;;;;;;5094371;28;19908;-77
2024/03/02 09:57:35;;;;;;;;;;;16.30;66.30;;;;;;5094285;28;19915;-75
2024/03/02 10:00:00;;;;;;;;;;;16.30;66.40;;;;;;5094188;28;19916;-73
2024/03/02 10:02:26;;;;;;;;;;;16.20;65.70;;;;;;5094150;28;20332;-77
2024/03/02 10:04:51;;;;;;;;;;;16.30;66.30;;;;;;5094283;28;20216;-74
2024/03/02 10:07:18;;;;;;;;;;;16.40;65.80;;;;;;5094121;28;19920;-74
2024/03/02 10:09:47;;;;;;;;;;;16.40;65.80;;;;;;5093899;28;19999;-74
2024/03/02 10:12:13;;;;;;;;;;;16.50;65.10;;;;;;5094519;28;20003;-72
2024/03/02 10:14:39;;;;;;;;;;;16.50;65.80;;;;;;5093788;28;19908;-72
2024/03/02 10:17:06;;;;;;;;;;;16.60;65.90;;;;;;5093643;28;20023;-72
2024/03/02 10:19:32;;;;;;;;;;;16.60;65.60;;;;;;5093489;28;20034;-72
2024/03/02 10:21:58;;;;;;;;;;;16.60;65.40;;;;;;5093694;28;19914;-74
2024/03/02 10:24:24;;;;;;;;;;;16.70;65.80;;;;;;5094001;28;19971;-72
2024/03/02 10:26:50;;;;;;;;;;;16.70;65.30;;;;;;5093424;28;19908;-74
2024/03/02 10:29:16;;;;;;;;;;;16.80;65.50;;;;;;5093489;28;19947;-72
2024/03/02 10:31:42;;;;;;;;;;;16.80;65.30;;;;;;5093425;28;19955;-74
2024/03/02 10:34:09;;;;;;;;;;;16.90;65.10;;;;;;5093632;28;20389;-74
2024/03/02 10:36:36;;;;;;;;;;;16.50;64.70;;;;;;5093324;28;19939;-71
2024/03/02 10:39:05;;;;;;;;;;;17.00;65.00;;;;;;5093306;28;19924;-78
2024/03/02 10:41:34;;;;;;;;;;;17.00;65.10;;;;;;5092639;28;19920;-72
2024/03/02 10:44:03;;;;;;;;;;;17.00;60.30;;;;;;5093343;28;19908;-71
2024/03/02 10:46:30;;;;;;;;;;;17.10;64.80;;;;;;5093133;28;19908;-70
2024/03/02 10:48:58;;;;;;;;;;;17.30;64.80;;;;;;5093376;28;20255;-69
2024/03/02 10:51:33;;;;;;;;;;;17.30;64.10;;;;;;5093197;28;19999;-70
2024/03/02 10:54:03;;;;;;;;;;;17.30;59.80;;;;;;5093239;28;19908;-71
2024/03/02 10:56:38;;;;;;;;;;;17.40;64.30;;;;;;5093470;28;19911;-70
2024/03/02 10:59:22;;;;;;;;;;;17.50;64.00;;;;;;5093144;28;19915;-69
2024/03/02 11:01:48;;;;;;;;;;;17.60;63.30;;;;;;5092914;28;19923;-75
2024/03/02 11:04:21;;;;;;;;;;;17.60;63.40;;;;;;5092939;28;19908;-75
2024/03/02 11:06:51;;;;;;;;;;;17.70;59.40;;;;;;5092942;28;19908;-75
2024/03/02 11:09:21;;;;;;;;;;;17.80;59.00;;;;;;5093027;28;19919;-76
2024/03/02 11:11:49;;;;;;;;;;;17.80;63.40;;;;;;5092857;28;19915;-74
2024/03/02 11:14:16;;;;;;;;;;;17.90;63.20;;;;;;5092751;28;20363;-74
2024/03/02 11:16:43;;;;;;;;;;;18.00;63.40;;;;;;5092914;28;19995;-75
2024/03/02 11:19:13;;;;;;;;;;;18.00;63.20;;;;;;5093075;28;19912;-76
2024/03/02 11:21:40;;;;;;;;;;;18.10;58.80;;;;;;5092686;28;19916;-80
2024/03/02 11:24:23;;;;;;;;;;;18.10;62.70;;;;;;5092679;28;19908;-78
2024/03/02 11:26:52;;;;;;;;;;;18.10;58.50;;;;;;5092670;28;19922;-77
2024/03/02 11:29:36;;;;;;;;;;;18.20;62.60;;;;;;5092714;28;19908;-75
2024/03/02 11:32:06;;;;;;;;;;;18.20;58.10;;;;;;5092507;28;20378;-83
2024/03/02 11:34:35;;;;;;;;;;;18.60;58.40;;;;;;5092586;28;19916;-79
2024/03/02 11:37:04;;;;;;;;;;;18.30;58.00;;;;;;5093030;28;19908;-79
2024/03/02 11:39:29;;;;;;;;;;;18.30;58.00;;;;;;5092294;28;19924;-80
2024/03/02 11:41:56;;;;;;;;;;;18.30;62.50;;;;;;5092346;28;19930;-77
2024/03/02 11:44:21;;;;;;;;;;;18.40;62.80;;;;;;5092507;28;19958;-75
2024/03/02 11:46:53;;;;;;;;;;;18.30;62.60;;;;;;5092352;28;19908;-75
2024/03/02 11:49:38;;;;;;;;;;;18.30;62.40;;;;;;5092674;28;19908;-75
2024/03/02 11:52:04;;;;;;;;;;;18.40;58.20;;;;;;5092490;28;19955;-78
2024/03/02 11:54:32;;;;;;;;;;;18.40;61.60;;;;;;5092431;28;19909;-77
2024/03/02 11:56:59;;;;;;;;;;;18.50;62.20;;;;;;5092490;28;19909;-78
2024/03/02 11:59:26;;;;;;;;;;;18.60;62.50;;;;;;5092273;28;19961;-79
2024/03/02 12:01:51;;;;;;;;;;;18.70;61.30;;;;;;5092176;28;20006;-77
2024/03/02 12:04:18;;;;;;;;;;;18.70;61.90;;;;;;5092957;28;20075;-80
2024/03/02 12:06:43;;;;;;;;;;;18.90;62.20;;;;;;5092281;28;19908;-77
2024/03/02 12:09:11;;;;;;;;;;;18.50;61.50;;;;;;5092376;28;19908;-82
2024/03/02 12:11:37;;;;;;;;;;;18.80;61.50;;;;;;5092153;28;19909;-74
2024/03/02 12:14:04;;;;;;;;;;;19.00;60.90;;;;;;5092193;28;19908;-76
2024/03/02 12:16:30;;;;;;;;;;;19.20;61.30;;;;;;5092389;28;20321;-74
2024/03/02 12:18:56;;;;;;;;;;;19.10;61.30;;;;;;5092373;28;19955;-74
2024/03/02 12:21:22;;;;;;;;;;;19.10;61.30;;;;;;5092101;28;19990;-76
2024/03/02 12:23:49;;;;;;;;;;;19.20;61.10;;;;;;5092374;28;19958;-76
2024/03/02 12:26:15;;;;;;;;;;;19.40;61.00;;;;;;5091957;28;19909;-75
2024/03/02 12:28:42;;;;;;;;;;;19.30;61.10;;;;;;5092160;28;19919;-76
2024/03/02 12:31:08;;;;;;;;;;;19.30;61.10;;;;;;5092373;28;19990;-76
2024/03/02 12:33:34;;;;;;;;;;;19.50;61.00;;;;;;5092492;28;19908;-74
2024/03/02 12:36:00;;;;;;;;;;;19.50;60.70;;;;;;5092452;28;20320;-75
2024/03/02 12:38:26;;;;;;;;;;;19.50;60.70;;;;;;5092060;28;20279;-76
2024/03/02 12:40:52;;;;;;;;;;;19.70;60.60;;;;;;5092184;28;19939;-75
2024/03/02 12:43:18;;;;;;;;;;;19.80;60.20;;;;;;5091958;28;19967;-76
2024/03/02 12:45:44;;;;;;;;;;;19.80;60.00;;;;;;5092237;28;19948;-75
2024/03/02 12:48:10;;;;;;;;;;;19.90;60.00;;;;;;5091839;28;19920;-75
2024/03/02 12:50:36;;;;;;;;;;;19.80;59.80;;;;;;5092237;28;20002;-75
2024/03/02 12:53:02;;;;;;;;;;;19.70;60.10;;;;;;5092257;28;19947;-75
2024/03/02 12:55:29;;;;;;;;;;;19.60;60.40;;;;;;5092261;28;19916;-76
2024/03/02 12:57:55;;;;;;;;;;;19.50;60.60;;;;;;5090634;28;19961;-75
2024/03/02 13:00:21;;;;;;;;;;;19.50;61.00;;;;;;5091954;28;19916;-76
2024/03/02 13:02:50;;;;;;;;;;;19.50;60.70;;;;;;5092022;28;19919;-75
2024/03/02 13:05:16;;;;;;;;;;;19.50;61.50;;;;;;5095568;28;19926;-75
2024/03/02 13:07:42;;;;;;;;;;;19.30;61.60;;;;;;5095514;28;19916;-75
2024/03/02 13:10:08;;;;;;;;;;;19.20;61.60;;;;;;5096009;28;19909;-72
2024/03/02 13:12:35;;;;;;;;;;;19.20;62.00;;;;;;5095486;28;19912;-71
2024/03/02 13:15:02;;;;;;;;;;;19.10;62.50;;;;;;5095172;28;19934;-72
2024/03/02 13:17:28;;;;;;;;;;;19.10;62.70;;;;;;5095394;28;20365;-71
2024/03/02 13:19:58;;;;;;;;;;;19.10;63.10;;;;;;5095205;28;19924;-72
2024/03/02 13:22:25;;;;;;;;;;;18.80;58.90;;;;;;5095272;28;19977;-71
2024/03/02 13:24:51;;;;;;;;;;;18.70;63.40;;;;;;5095182;28;20307;-71
2024/03/02 13:27:20;;;;;;;;;;;18.80;63.80;;;;;;5094897;28;19909;-71
2024/03/02 13:29:49;;;;;;;;;;;18.80;60.40;;;;;;5095211;28;19993;-72
2024/03/02 13:32:32;;;;;;;;;;;18.70;63.80;;;;;;5094523;28;20044;-71
2024/03/02 13:34:58;;;;;;;;;;;18.60;63.90;;;;;;5094781;28;19909;-72
2024/03/02 13:37:24;;;;;;;;;;;18.60;63.70;;;;;;5095125;28;20319;-75
2024/03/02 13:39:50;;;;;;;;;;;18.60;64.10;;;;;;5094414;28;20021;-75
2024/03/02 13:42:16;;;;;;;;;;;18.60;64.20;;;;;;5094665;28;19909;-76
2024/03/02 13:44:49;;;;;;;;;;;18.50;64.40;;;;;;5094998;28;19912;-76
2024/03/02 13:47:15;;;;;;;;;;;18.20;59.80;;;;;;5094813;28;19961;-76
2024/03/02 13:49:45;;;;;;;;;;;18.50;64.40;;;;;;5094545;28;20267;-72
2024/03/02 13:52:13;;;;;;;;;;;18.20;64.60;;;;;;5094705;28;19912;-72
2024/03/02 13:54:42;;;;;;;;;;;18.40;64.40;;;;;;5094351;28;19999;-72
2024/03/02 13:57:09;;;;;;;;;;;18.30;60.30;;;;;;5094298;28;20390;-72
2024/03/02 13:59:35;;;;;;;;;;;18.30;64.80;;;;;;5094112;28;20363;-71
2024/03/02 14:02:01;;;;;;;;;;;18.40;64.60;;;;;;5094494;28;19995;-72
2024/03/02 14:04:27;;;;;;;;;;;18.30;65.20;;;;;;5094060;28;19912;-72
2024/03/02 14:06:54;;;;;;;;;;;18.30;64.70;;;;;;5094870;28;19908;-72
2024/03/02 14:09:20;;;;;;;;;;;18.20;64.90;;;;;;5094004;28;20371;-72
2024/03/02 14:11:46;;;;;;;;;;;18.20;65.20;;;;;;5093950;28;19908;-72
2024/03/02 14:14:12;;;;;;;;;;;18.20;65.20;;;;;;5094094;28;19916;-72
2024/03/02 14:16:37;;;;;;;;;;;18.20;64.80;;;;;;5093933;28;19915;-72